Time;durP1;ratioP1;P1;durP2;ratioP2;P2;SDS_P1;SDS_P2;PMS_P1;PMS_P2;Temp;Humidity;BMP_temperature;BMP_pressure;BME280_temperature;BME280_humidity;BME280_pressure;Samples;Min_cycle;Max_cycle;Signal;HPM_P1;HPM_P2
2021/05/06 00:07:19;;;;;;;;;;;;;;;;;;5053239;28;20032;-52
2021/05/06 00:29:41;;;;;;;18.35;5.38;;;;;;;;;;5034993;28;20037;-52
2021/05/06 00:33:57;;;;;;;17.05;5.93;;;;;;;;;;5034580;28;20151;-55
2021/05/06 00:36:23;;;;;;;20.00;5.70;;;;;;;;;;5034296;28;20060;-55
2021/05/06 00:38:53;;;;;;;18.40;6.13;;;;;;;;;;5034251;28;20158;-52
2021/05/06 00:56:58;;;;;;;19.58;6.68;;;;;;;;;;5035054;28;20033;-53
2021/05/06 01:04:36;;;;;;;18.83;6.75;;;;;;;;;;5034110;28;20051;-55
2021/05/06 01:07:51;;;;;;;23.15;7.32;;;;;;;;;;5032757;28;20026;-57
2021/05/06 01:12:26;;;;;;;28.65;7.75;;;;;;;;;;5033937;28;20033;-52
2021/05/06 01:14:52;;;;;;;19.80;6.75;;;;;;;;;;5033853;28;20055;-55
2021/05/06 01:17:19;;;;;;;22.63;7.50;;;;;;;;;;5033708;28;20087;-54
2021/05/06 01:19:44;;;;;;;18.60;7.40;;;;;;;;;;5033574;28;20025;-53
2021/05/06 01:22:10;;;;;;;18.65;7.70;;;;;;;;;;5033593;28;20144;-58
2021/05/06 01:24:36;;;;;;;18.48;6.65;;;;;;;;;;5032318;28;20078;-54
2021/05/06 01:27:13;;;;;;;18.38;8.73;;;;;;;;;;5032291;28;20120;-56
2021/05/06 01:29:45;;;;;;;18.05;7.40;;;;;;;;;;5032082;28;20021;-53
2021/05/06 01:32:26;;;;;;;18.92;8.48;;;;;;;;;;5033037;28;20037;-55
2021/05/06 01:34:59;;;;;;;18.42;7.63;;;;;;;;;;5033361;28;20147;-53
2021/05/06 01:37:35;;;;;;;18.45;7.63;;;;;;;;;;5033324;28;20033;-52
2021/05/06 01:42:49;;;;;;;22.95;7.47;;;;;;;;;;5033518;28;20044;-55
2021/05/06 01:47:54;;;;;;;18.85;7.53;;;;;;;;;;5033171;28;20389;-53
2021/05/06 01:50:33;;;;;;;20.20;8.90;;;;;;;;;;5033044;28;20176;-53
2021/05/06 01:58:49;;;;;;;25.17;9.93;;;;;;;;;;5033569;28;20088;-55
2021/05/06 02:01:15;;;;;;;18.75;9.57;;;;;;;;;;5033350;28;20045;-55
2021/05/06 02:03:41;;;;;;;20.30;10.40;;;;;;;;;;5033440;28;20049;-58
2021/05/06 02:06:07;;;;;;;24.45;11.98;;;;;;;;;;5033303;28;20421;-58
2021/05/06 02:08:33;;;;;;;25.52;13.75;;;;;;;;;;5033410;28;20021;-57
2021/05/06 02:11:01;;;;;;;25.17;16.05;;;;;;;;;;5032972;28;20473;-57
2021/05/06 02:13:27;;;;;;;23.20;14.90;;;;;;;;;;5033047;28;20044;-54
2021/05/06 02:16:02;;;;;;;25.65;16.77;;;;;;;;;;5032747;28;20402;-50
2021/05/06 02:18:30;;;;;;;25.48;18.58;;;;;;;;;;5032652;28;20017;-52
2021/05/06 02:20:56;;;;;;;28.15;18.48;;;;;;;;;;5032452;28;20018;-50
2021/05/06 02:23:22;;;;;;;28.88;18.60;;;;;;;;;;5032545;28;20032;-53
2021/05/06 02:25:48;;;;;;;31.02;19.52;;;;;;;;;;5031226;28;20052;-50
2021/05/06 02:28:14;;;;;;;31.20;20.88;;;;;;;;;;5031185;28;20068;-51
2021/05/06 02:30:41;;;;;;;29.58;20.48;;;;;;;;;;5031252;28;20544;-51
2021/05/06 02:33:09;;;;;;;33.38;20.98;;;;;;;;;;5032309;28;20021;-53
2021/05/06 02:35:36;;;;;;;31.35;21.00;;;;;;;;;;5032425;28;20026;-51
2021/05/06 02:38:03;;;;;;;32.30;21.17;;;;;;;;;;5032371;28;20079;-51
2021/05/06 02:40:29;;;;;;;30.20;20.52;;;;;;;;;;5030986;28;20433;-54
2021/05/06 02:42:55;;;;;;;29.13;20.98;;;;;;;;;;5030201;28;20018;-53
2021/05/06 02:45:22;;;;;;;27.80;19.83;;;;;;;;;;5032084;28;20053;-52
2021/05/06 02:47:48;;;;;;;27.15;19.40;;;;;;;;;;5032252;28;20398;-52
2021/05/06 02:50:15;;;;;;;31.40;18.85;;;;;;;;;;5030638;28;20053;-55
2021/05/06 02:52:58;;;;;;;27.63;19.63;;;;;;;;;;5032105;28;20029;-54
2021/05/06 02:55:53;;;;;;;29.88;18.70;;;;;;;;;;5032001;28;20039;-56
2021/05/06 02:58:17;;;;;;;26.67;17.77;;;;;;;;;;5031539;28;20417;-58
2021/05/06 03:03:32;;;;;;;27.13;18.90;;;;;;;;;;5032500;28;20095;-57
2021/05/06 03:05:58;;;;;;;30.63;19.23;;;;;;;;;;5031003;28;20026;-58
2021/05/06 03:08:31;;;;;;;25.58;18.02;;;;;;;;;;5032326;28;20084;-57
2021/05/06 03:14:00;;;;;;;26.88;17.88;;;;;;;;;;5033360;28;20075;-55
2021/05/06 03:24:33;;;;;;;30.02;18.83;;;;;;;;;;5031953;28;20029;-58
2021/05/06 03:27:00;;;;;;;28.00;18.80;;;;;;;;;;5031820;28;20432;-57
2021/05/06 03:29:34;;;;;;;27.00;17.63;;;;;;;;;;5030459;28;20112;-55
2021/05/06 03:34:40;;;;;;;29.27;18.08;;;;;;;;;;5031797;28;20029;-57
2021/05/06 03:42:44;;;;;;;29.90;17.75;;;;;;;;;;5031790;28;20033;-56
2021/05/06 03:48:31;;;;;;;27.75;19.67;;;;;;;;;;5031752;28;20083;-52
2021/05/06 04:15:36;;;;;;;29.77;20.35;;;;;;;;;;5019043;28;20029;-55
2021/05/06 04:18:15;;;;;;;26.70;19.77;;;;;;;;;;5033430;28;20029;-56
2021/05/06 04:26:03;;;;;;;29.73;19.83;;;;;;;;;;5034564;28;20068;-53
2021/05/06 04:36:20;;;;;;;26.20;18.33;;;;;;;;;;5034697;28;20401;-54
2021/05/06 04:38:46;;;;;;;25.85;17.80;;;;;;;;;;5033207;28;20539;-55
2021/05/06 04:41:41;;;;;;;26.90;17.63;;;;;;;;;;5033250;28;20030;-55
2021/05/06 04:50:19;;;;;;;25.42;16.60;;;;;;;;;;5034553;28;20750;-58
2021/05/06 04:55:25;;;;;;;22.10;15.68;;;;;;;;;;5034009;28;20048;-53
2021/05/06 05:06:00;;;;;;;27.20;16.13;;;;;;;;;;5033334;28;20053;-57
2021/05/06 05:08:30;;;;;;;23.63;15.93;;;;;;;;;;5033895;28;20018;-55
2021/05/06 05:11:27;;;;;;;24.63;16.40;;;;;;;;;;5032564;28;20389;-58
2021/05/06 05:24:55;;;;;;;22.45;15.10;;;;;;;;;;5033627;28;20117;-52
2021/05/06 05:27:24;;;;;;;22.83;14.43;;;;;;;;;;5033771;28;20053;-54
2021/05/06 05:29:51;;;;;;;21.88;14.85;;;;;;;;;;5031928;28;20030;-57
2021/05/06 05:32:18;;;;;;;22.00;14.93;;;;;;;;;;5033087;28;20044;-57
2021/05/06 05:34:49;;;;;;;24.52;16.10;;;;;;;;;;5033105;28;20025;-56
2021/05/06 05:37:18;;;;;;;25.17;16.55;;;;;;;;;;5032729;28;20021;-57
2021/05/06 05:39:58;;;;;;;28.95;17.30;;;;;;;;;;5032661;28;20025;-57
2021/05/06 05:42:45;;;;;;;24.73;15.77;;;;;;;;;;5032805;28;20026;-55
2021/05/06 05:56:09;;;;;;;25.17;16.08;;;;;;;;;;5032549;28;20122;-58
2021/05/06 05:58:35;;;;;;;25.30;17.23;;;;;;;;;;5032835;28;20048;-56
2021/05/06 06:01:01;;;;;;;24.95;16.92;;;;;;;;;;5032717;28;20096;-55
2021/05/06 06:03:27;;;;;;;25.92;16.02;;;;;;;;;;5031298;28;20432;-57
2021/05/06 06:05:53;;;;;;;28.23;16.70;;;;;;;;;;5032705;28;20045;-58
2021/05/06 06:08:25;;;;;;;26.42;16.73;;;;;;;;;;5031073;28;20026;-57
2021/05/06 06:10:51;;;;;;;23.38;15.73;;;;;;;;;;5030769;28;20021;-61
2021/05/06 06:13:17;;;;;;;23.48;16.02;;;;;;;;;;5032384;28;20088;-54
2021/05/06 06:16:08;;;;;;;24.42;15.73;;;;;;;;;;5031994;28;20375;-52
2021/05/06 06:21:03;;;;;;;25.15;17.02;;;;;;;;;;5032404;28;20033;-57
2021/05/06 06:23:29;;;;;;;24.77;15.02;;;;;;;;;;5032683;28;20025;-55
2021/05/06 06:25:55;;;;;;;25.17;16.85;;;;;;;;;;5030876;28;20437;-58
2021/05/06 06:28:22;;;;;;;26.35;17.30;;;;;;;;;;5030818;28;20057;-53
2021/05/06 06:30:48;;;;;;;24.08;17.05;;;;;;;;;;5030670;28;20029;-55
2021/05/06 06:33:15;;;;;;;23.40;15.85;;;;;;;;;;5031787;28;20034;-52
2021/05/06 06:35:41;;;;;;;24.02;17.70;;;;;;;;;;5032003;28;20021;-53
2021/05/06 06:38:07;;;;;;;23.02;16.77;;;;;;;;;;5030216;28;20418;-56
2021/05/06 06:40:33;;;;;;;22.65;15.38;;;;;;;;;;5036463;28;20034;-56
2021/05/06 06:42:59;;;;;;;24.33;16.27;;;;;;;;;;5050359;28;20021;-61
2021/05/06 06:45:25;;;;;;;24.45;15.27;;;;;;;;;;5046441;28;20024;-52
2021/05/06 06:47:52;;;;;;;22.60;15.32;;;;;;;;;;5031977;28;20026;-53
2021/05/06 06:50:18;;;;;;;22.55;15.20;;;;;;;;;;5041330;28;20144;-55
2021/05/06 06:52:44;;;;;;;24.38;15.30;;;;;;;;;;5051620;28;20072;-54
2021/05/06 06:55:10;;;;;;;25.98;15.55;;;;;;;;;;5058863;22;20494;-60
2021/05/06 06:57:36;;;;;;;23.77;14.55;;;;;;;;;;4990602;28;20096;-62
2021/05/06 07:00:03;;;;;;;24.35;15.85;;;;;;;;;;4988854;28;20023;-62
2021/05/06 07:02:30;;;;;;;25.85;17.05;;;;;;;;;;4990843;28;20163;-65
2021/05/06 07:04:56;;;;;;;24.33;14.82;;;;;;;;;;4989008;28;20026;-64
2021/05/06 07:07:22;;;;;;;23.38;15.85;;;;;;;;;;4985417;28;20046;-64
2021/05/06 07:09:48;;;;;;;24.60;16.77;;;;;;;;;;4971794;28;20109;-63
2021/05/06 07:12:14;;;;;;;22.58;15.35;;;;;;;;;;4971339;28;20460;-62
2021/05/06 07:14:40;;;;;;;22.13;14.18;;;;;;;;;;4987205;28;20026;-66
2021/05/06 07:17:06;;;;;;;21.65;14.27;;;;;;;;;;4986161;28;20486;-64
2021/05/06 07:19:32;;;;;;;23.20;14.93;;;;;;;;;;4970468;28;20035;-64
2021/05/06 07:21:58;;;;;;;21.27;13.93;;;;;;;;;;4969996;28;20503;-62
2021/05/06 07:24:24;;;;;;;21.05;13.10;;;;;;;;;;4972160;28;20344;-64
2021/05/06 07:26:50;;;;;;;22.10;14.00;;;;;;;;;;4971302;28;20034;-64
2021/05/06 07:29:20;;;;;;;20.90;13.93;;;;;;;;;;4971854;28;20388;-63
2021/05/06 07:31:47;;;;;;;21.48;14.15;;;;;;;;;;4975391;28;20026;-62
2021/05/06 07:34:13;;;;;;;21.95;13.80;;;;;;;;;;4974200;28;20035;-65
2021/05/06 07:36:39;;;;;;;21.30;12.95;;;;;;;;;;4975063;28;20026;-61
2021/05/06 07:39:05;;;;;;;20.45;13.27;;;;;;;;;;4975227;28;20476;-61
2021/05/06 07:41:32;;;;;;;20.75;13.25;;;;;;;;;;4975007;28;20031;-59
2021/05/06 07:43:58;;;;;;;20.05;12.13;;;;;;;;;;4990366;28;20387;-63
2021/05/06 07:46:24;;;;;;;19.67;12.32;;;;;;;;;;4990323;28;20034;-64
2021/05/06 07:48:54;;;;;;;20.23;12.90;;;;;;;;;;4990917;28;20029;-63
2021/05/06 07:51:20;;;;;;;19.50;12.52;;;;;;;;;;4991086;28;20161;-61
2021/05/06 07:53:51;;;;;;;19.30;11.27;;;;;;;;;;4976331;28;20450;-63
2021/05/06 07:56:18;;;;;;;19.85;12.35;;;;;;;;;;4976078;28;20049;-64
2021/05/06 07:58:44;;;;;;;20.77;13.23;;;;;;;;;;4976016;28;20076;-64
2021/05/06 08:01:10;;;;;;;19.10;12.40;;;;;;;;;;4976368;28;20022;-65
2021/05/06 08:03:37;;;;;;;21.17;12.27;;;;;;;;;;4976146;28;20022;-63
2021/05/06 08:06:03;;;;;;;19.48;11.52;;;;;;;;;;4990919;28;20070;-61
2021/05/06 08:08:29;;;;;;;20.52;11.85;;;;;;;;;;4990978;28;20030;-63
2021/05/06 08:10:56;;;;;;;18.70;11.68;;;;;;;;;;4990334;28;20035;-61
2021/05/06 08:13:23;;;;;;;19.25;12.60;;;;;;;;;;4976245;28;20023;-64
2021/05/06 08:15:50;;;;;;;20.10;12.00;;;;;;;;;;4957089;29;20042;-60
2021/05/06 08:18:16;;;;;;;19.73;11.07;;;;;;;;;;4956875;28;20436;-64
2021/05/06 08:20:42;;;;;;;20.23;12.38;;;;;;;;;;4956671;28;20024;-64
2021/05/06 08:23:12;;;;;;;19.42;12.15;;;;;;;;;;4957539;28;20176;-63
2021/05/06 08:25:38;;;;;;;20.75;12.77;;;;;;;;;;4957074;29;20027;-63
2021/05/06 08:28:05;;;;;;;19.85;11.65;;;;;;;;;;4956019;29;20030;-63
2021/05/06 08:30:31;;;;;;;20.15;11.88;;;;;;;;;;4956091;29;20058;-63
2021/05/06 08:32:57;;;;;;;18.38;11.15;;;;;;;;;;4956247;29;20027;-64
2021/05/06 08:35:23;;;;;;;19.98;12.15;;;;;;;;;;4955597;28;20023;-63
2021/05/06 08:37:49;;;;;;;19.65;12.10;;;;;;;;;;4973697;28;20034;-63
2021/05/06 08:40:15;;;;;;;20.42;12.70;;;;;;;;;;4971730;28;20026;-63
2021/05/06 08:42:41;;;;;;;19.33;12.15;;;;;;;;;;4988031;28;20069;-63
2021/05/06 08:45:08;;;;;;;20.45;12.40;;;;;;;;;;4971025;28;20094;-62
2021/05/06 08:47:34;;;;;;;21.60;12.82;;;;;;;;;;4964647;28;20035;-63
2021/05/06 08:50:01;;;;;;;21.10;12.43;;;;;;;;;;4954398;28;20109;-63
2021/05/06 08:52:27;;;;;;;20.05;11.85;;;;;;;;;;4954729;28;20047;-60
2021/05/06 08:54:57;;;;;;;21.38;11.88;;;;;;;;;;4954399;28;20546;-60
2021/05/06 08:57:24;;;;;;;19.33;11.80;;;;;;;;;;4954399;28;20055;-59
2021/05/06 08:59:51;;;;;;;17.92;10.10;;;;;;;;;;4968635;28;20027;-62
2021/05/06 09:02:17;;;;;;;18.13;10.20;;;;;;;;;;4953826;29;20416;-62
2021/05/06 09:04:43;;;;;;;20.48;11.43;;;;;;;;;;4954399;28;20035;-59
2021/05/06 09:07:10;;;;;;;19.25;11.13;;;;;;;;;;4954139;28;20076;-60
2021/05/06 09:09:37;;;;;;;17.88;10.85;;;;;;;;;;4968668;28;20035;-64
2021/05/06 09:12:06;;;;;;;17.42;10.15;;;;;;;;;;4954427;28;20081;-60
2021/05/06 09:14:38;;;;;;;19.83;10.57;;;;;;;;;;4954385;28;20447;-58
2021/05/06 09:17:05;;;;;;;17.67;10.35;;;;;;;;;;4954287;28;20485;-59
2021/05/06 09:19:31;;;;;;;18.98;10.38;;;;;;;;;;4953996;28;20050;-62
2021/05/06 09:21:57;;;;;;;16.83;9.93;;;;;;;;;;4954028;28;20027;-62
2021/05/06 09:24:25;;;;;;;18.75;10.00;;;;;;;;;;4954062;28;20074;-62
2021/05/06 09:26:56;;;;;;;17.45;9.55;;;;;;;;;;4954023;28;20537;-60
2021/05/06 09:29:48;;;;;;;19.65;10.75;;;;;;;;;;4968202;28;20026;-60
2021/05/06 09:32:20;;;;;;;19.33;11.20;;;;;;;;;;4970306;28;20046;-60
2021/05/06 09:34:47;;;;;;;18.55;10.15;;;;;;;;;;4973252;28;20066;-59
2021/05/06 09:37:23;;;;;;;19.00;9.90;;;;;;;;;;4972640;28;20113;-61
2021/05/06 09:39:56;;;;;;;19.52;10.02;;;;;;;;;;4972056;28;20022;-59
2021/05/06 09:42:35;;;;;;;17.10;8.85;;;;;;;;;;4987062;28;20023;-61
2021/05/06 09:45:01;;;;;;;18.23;10.23;;;;;;;;;;4987163;28;20169;-61
2021/05/06 09:47:27;;;;;;;19.50;9.85;;;;;;;;;;4971876;28;20030;-60
2021/05/06 09:49:53;;;;;;;17.58;9.27;;;;;;;;;;4971585;28;20034;-62
2021/05/06 09:52:19;;;;;;;18.13;9.75;;;;;;;;;;4971067;28;20112;-60
2021/05/06 09:54:46;;;;;;;18.52;9.50;;;;;;;;;;4964122;28;20035;-62
2021/05/06 09:57:12;;;;;;;20.45;9.15;;;;;;;;;;4952367;29;20028;-64
2021/05/06 09:59:39;;;;;;;17.58;8.98;;;;;;;;;;4952588;28;20072;-63
2021/05/06 10:02:09;;;;;;;17.27;8.75;;;;;;;;;;4967390;28;20110;-59
2021/05/06 10:04:35;;;;;;;17.77;8.52;;;;;;;;;;4952180;28;20102;-61
2021/05/06 10:07:07;;;;;;;18.02;8.23;;;;;;;;;;4965656;28;20027;-62
2021/05/06 10:09:33;;;;;;;17.52;8.80;;;;;;;;;;4951471;29;20034;-62
2021/05/06 10:12:00;;;;;;;17.38;8.60;;;;;;;;;;4952478;28;20020;-62
2021/05/06 10:14:26;;;;;;;16.75;8.45;;;;;;;;;;4952535;29;20034;-62
2021/05/06 10:16:52;;;;;;;16.77;8.27;;;;;;;;;;4952094;29;20114;-59
2021/05/06 10:19:19;;;;;;;15.48;7.97;;;;;;;;;;4952628;28;20030;-62
2021/05/06 10:21:45;;;;;;;17.27;8.52;;;;;;;;;;4952299;28;20043;-62
2021/05/06 10:24:11;;;;;;;18.90;9.00;;;;;;;;;;4952245;28;20046;-60
2021/05/06 10:26:39;;;;;;;17.25;8.82;;;;;;;;;;4952132;28;20035;-63
2021/05/06 10:29:05;;;;;;;18.88;9.60;;;;;;;;;;4967124;28;20159;-62
2021/05/06 10:31:31;;;;;;;18.77;8.73;;;;;;;;;;4966943;28;20054;-62
2021/05/06 10:33:57;;;;;;;17.58;9.32;;;;;;;;;;4967845;28;20039;-61
2021/05/06 10:36:23;;;;;;;20.38;10.23;;;;;;;;;;4955539;28;20019;-60
2021/05/06 10:38:49;;;;;;;17.00;9.55;;;;;;;;;;4972754;28;20550;-61
2021/05/06 10:41:25;;;;;;;20.52;10.40;;;;;;;;;;4974282;28;20087;-57
2021/05/06 10:44:04;;;;;;;17.33;9.88;;;;;;;;;;4971079;28;20110;-61
2021/05/06 10:46:56;;;;;;;17.00;9.85;;;;;;;;;;4985970;28;20035;-58
2021/05/06 10:49:23;;;;;;;18.85;10.40;;;;;;;;;;4970737;28;20026;-60
2021/05/06 10:51:58;;;;;;;17.27;9.82;;;;;;;;;;4971210;28;20058;-60
2021/05/06 10:54:24;;;;;;;17.42;10.18;;;;;;;;;;4971244;28;20046;-56
2021/05/06 10:56:50;;;;;;;19.90;10.20;;;;;;;;;;4970562;28;20031;-57
2021/05/06 10:59:23;;;;;;;17.83;10.15;;;;;;;;;;4985729;28;20118;-59
2021/05/06 11:01:50;;;;;;;17.60;10.07;;;;;;;;;;4971150;28;20129;-60
2021/05/06 11:04:16;;;;;;;17.58;11.43;;;;;;;;;;4970123;28;20019;-58
2021/05/06 11:06:43;;;;;;;19.27;11.70;;;;;;;;;;4985407;28;20054;-61
2021/05/06 11:09:46;;;;;;;17.75;11.45;;;;;;;;;;4970734;28;20022;-60
2021/05/06 11:12:16;;;;;;;20.20;11.88;;;;;;;;;;4985581;28;20023;-62
2021/05/06 11:17:27;;;;;;;20.02;13.20;;;;;;;;;;4970206;28;20092;-58
2021/05/06 11:19:53;;;;;;;18.38;11.43;;;;;;;;;;4970293;28;20034;-63
2021/05/06 11:22:38;;;;;;;18.70;11.55;;;;;;;;;;4970538;28;20068;-64
2021/05/06 11:25:24;;;;;;;19.95;12.38;;;;;;;;;;4970945;28;20340;-62
2021/05/06 11:27:49;;;;;;;18.33;11.95;;;;;;;;;;4970531;28;20106;-61
2021/05/06 11:30:34;;;;;;;17.58;11.50;;;;;;;;;;4985183;28;20589;-63
2021/05/06 11:33:19;;;;;;;19.17;13.00;;;;;;;;;;4970967;28;20054;-57
2021/05/06 11:36:06;;;;;;;20.67;12.80;;;;;;;;;;4970733;28;20030;-61
2021/05/06 11:38:38;;;;;;;21.33;12.35;;;;;;;;;;4984976;28;20109;-58
2021/05/06 11:41:09;;;;;;;20.45;13.40;;;;;;;;;;4970405;28;20547;-63
2021/05/06 11:43:36;;;;;;;18.80;12.38;;;;;;;;;;4984754;28;20071;-61
2021/05/06 11:46:08;;;;;;;18.75;13.10;;;;;;;;;;4980495;28;20499;-58
2021/05/06 11:48:38;;;;;;;19.40;13.40;;;;;;;;;;4959073;28;20487;-62
2021/05/06 11:51:05;;;;;;;19.73;14.40;;;;;;;;;;4959575;28;20023;-55
2021/05/06 11:53:31;;;;;;;19.30;14.23;;;;;;;;;;4960556;28;20602;-61
2021/05/06 11:55:57;;;;;;;19.55;14.20;;;;;;;;;;4961518;28;20030;-66
2021/05/06 11:58:24;;;;;;;20.33;14.02;;;;;;;;;;4976915;28;20038;-62
2021/05/06 12:00:52;;;;;;;20.50;14.52;;;;;;;;;;4961408;28;20106;-59
2021/05/06 12:03:18;;;;;;;18.23;13.18;;;;;;;;;;4960272;28;20053;-60
2021/05/06 12:05:47;;;;;;;17.88;13.85;;;;;;;;;;4959619;28;20022;-61
2021/05/06 12:08:13;;;;;;;16.80;12.50;;;;;;;;;;4974567;28;20091;-61
2021/05/06 12:10:42;;;;;;;17.92;13.32;;;;;;;;;;4975900;28;20031;-58
2021/05/06 12:13:09;;;;;;;18.65;12.88;;;;;;;;;;4959648;28;20154;-57
2021/05/06 12:15:35;;;;;;;17.50;12.82;;;;;;;;;;4965657;28;20022;-52
2021/05/06 12:18:16;;;;;;;17.05;11.90;;;;;;;;;;4964337;28;20406;-61
2021/05/06 12:20:50;;;;;;;18.02;13.02;;;;;;;;;;4988623;28;20027;-60
2021/05/06 12:23:16;;;;;;;18.42;13.10;;;;;;;;;;4970792;28;20384;-61
2021/05/06 12:25:42;;;;;;;18.58;13.07;;;;;;;;;;4635912;28;10000430;-61
2021/05/06 12:28:08;;;;;;;17.80;12.60;;;;;;;;;;4962952;28;20500;-61
2021/05/06 12:30:34;;;;;;;16.85;10.88;;;;;;;;;;4962035;28;20457;-63
2021/05/06 12:33:00;;;;;;;17.10;12.30;;;;;;;;;;4977671;28;20094;-63
2021/05/06 12:35:26;;;;;;;18.58;13.30;;;;;;;;;;4958875;28;20483;-62
2021/05/06 12:37:53;;;;;;;18.30;13.05;;;9.80;99.90;;;;;;4957779;28;20419;-58
2021/05/06 12:40:19;;;;;;;17.55;12.82;;;15.90;66.90;;;;;;4962691;28;20042;-60
2021/05/06 12:42:45;;;;;;;16.85;11.88;;;15.60;65.60;;;;;;4963095;28;20387;-62
2021/05/06 12:45:14;;;;;;;18.75;12.02;;;;;;;;;;4965498;28;20031;-57
2021/05/06 12:47:44;;;;;;;17.00;12.07;;;;;;;;;;4964239;28;20480;-60
2021/05/06 12:50:11;;;;;;;17.05;12.73;;;;;;;;;;4961260;28;20100;-58
2021/05/06 12:52:38;;;;;;;17.92;12.45;;;;;;;;;;4962660;28;20663;-62
2021/05/06 12:55:17;;;;;;;18.58;11.95;;;;;;;;;;4959656;28;20372;-60
2021/05/06 12:57:43;;;;;;;18.73;12.05;;;;;;;;;;4962129;28;20071;-53
2021/05/06 13:00:20;;;;;;;17.05;11.77;;;;;;;;;;4958980;28;20022;-58
2021/05/06 13:02:46;;;;;;;18.80;13.32;;;;;;;;;;4961020;28;20537;-62
2021/05/06 13:05:27;;;;;;;20.02;13.27;;;;;;;;;;4988225;23;20041;-50
2021/05/06 13:07:54;;;;;;;19.95;13.10;;;;;;;;;;5018165;28;20037;-51
2021/05/06 13:10:33;;;;;;;18.10;12.95;;;;;;;;;;5009313;28;20040;-57
2021/05/06 13:13:00;;;;;;;20.52;12.60;;;;;;;;;;5011488;28;20151;-53
2021/05/06 13:15:26;;;;;;;18.00;13.48;;;;;;;;;;5009550;28;20087;-55
2021/05/06 13:17:52;;;;;;;17.63;12.70;;;;;;;;;;5012970;28;20401;-55
2021/05/06 13:20:20;;;;;;;18.45;12.88;;;;;;;;;;5009934;28;20513;-52
2021/05/06 13:23:06;;;;;;;17.55;12.38;;;;;;;;;;5025350;28;20042;-57
2021/05/06 13:25:45;;;;;;;19.33;12.68;;;;;;;;;;5015636;28;20079;-52
2021/05/06 13:28:16;;;;;;;18.45;13.23;;;;;;;;;;5028149;28;20077;-53
2021/05/06 13:30:42;;;;;;;19.63;12.77;;;;;;;;;;5029518;28;20100;-54
2021/05/06 13:33:13;;;;;;;18.88;13.13;;;;;;;;;;5029676;28;20536;-56
2021/05/06 13:35:39;;;;;;;17.35;12.52;;;;;;;;;;5018260;28;20025;-52
2021/05/06 13:38:05;;;;;;;18.60;13.55;;;;;;;;;;5019963;28;20033;-57
2021/05/06 13:40:31;;;;;;;18.90;13.05;;;;;;;;;;5023456;28;20022;-53
2021/05/06 13:42:57;;;;;;;17.45;12.10;;;;;;;;;;5010112;28;20101;-56
2021/05/06 13:45:23;;;;;;;20.25;13.15;;;;;;;;;;5017440;28;20079;-56
2021/05/06 13:47:49;;;;;;;18.17;13.43;;;;;;;;;;5009732;28;20038;-57
2021/05/06 13:50:16;;;;;;;18.27;12.80;;;;;;;;;;5008632;28;20125;-57
2021/05/06 13:52:42;;;;;;;18.30;12.70;;;;;;;;;;5008135;28;20029;-55
2021/05/06 13:55:09;;;;;;;18.45;13.15;;;;;;;;;;5008969;28;20577;-51
2021/05/06 13:57:35;;;;;;;19.58;12.80;;;;;;;;;;5008017;28;21029;-56
2021/05/06 14:00:01;;;;;;;19.83;14.35;;;;;;;;;;5006637;28;20368;-52
2021/05/06 14:02:28;;;;;;;20.02;13.77;;;;;;;;;;5007801;28;20026;-54
2021/05/06 14:04:54;;;;;;;22.55;15.77;;;;;;;;;;5018568;28;20156;-51
2021/05/06 14:07:20;;;;;;;21.40;13.38;;;;;;;;;;5021198;28;20049;-54
2021/05/06 14:09:46;;;;;;;19.95;13.32;;;;;;;;;;5028068;28;20029;-56
2021/05/06 14:12:12;;;;;;;17.73;13.20;;;;;;;;;;5021758;28;20498;-52
2021/05/06 14:14:38;;;;;;;17.73;13.15;;;;;;;;;;5025148;28;20052;-51
2021/05/06 14:17:04;;;;;;;18.50;14.05;;;;;;;;;;5014763;28;20040;-53
2021/05/06 14:19:30;;;;;;;19.63;13.15;;;;;;;;;;5023404;28;20548;-55
2021/05/06 14:21:56;;;;;;;18.38;14.02;;;;;;;;;;5016935;28;20073;-51
2021/05/06 14:24:22;;;;;;;17.50;12.90;;;;;;;;;;5017168;28;20096;-52
2021/05/06 14:26:49;;;;;;;18.52;12.73;;;;;;;;;;5012121;28;20032;-55
2021/05/06 14:29:16;;;;;;;18.92;13.98;;;;;;;;;;5019530;28;20029;-52
2021/05/06 14:31:43;;;;;;;18.33;12.85;;;;;;;;;;5019341;28;20033;-52
2021/05/06 14:34:09;;;;;;;22.90;14.32;;;;;;;;;;5026660;28;20029;-53
2021/05/06 14:36:35;;;;;;;19.92;15.07;;;;;;;;;;5027081;28;20021;-58
2021/05/06 14:39:02;;;;;;;18.95;13.32;;;;;;;;;;5026956;28;20033;-54
2021/05/06 14:41:28;;;;;;;20.80;14.32;;;;;;;;;;5028149;28;20148;-56
2021/05/06 14:43:54;;;;;;;20.08;14.32;;;;;;;;;;5026268;28;20112;-54
2021/05/06 14:46:23;;;;;;;18.92;13.32;;;;;;;;;;5028070;28;20018;-53
2021/05/06 14:48:49;;;;;;;19.85;13.27;;;;;;;;;;5024838;28;20095;-54
2021/05/06 14:51:16;;;;;;;18.95;13.32;;;;;;;;;;5026571;28;20429;-55
2021/05/06 14:53:44;;;;;;;19.17;13.35;;;;;;;;;;5026714;28;20029;-55
2021/05/06 14:56:10;;;;;;;;;;;;;;;;;;5022195;28;20037;-55
2021/05/06 14:58:36;;;;;;;25.52;19.40;;;;;;;;;;5026578;28;20242;-55
2021/05/06 15:01:02;;;;;;;21.83;14.60;;;;;;;;;;5026017;28;20025;-54
2021/05/06 15:03:28;;;;;;;19.85;14.13;;;;;;;;;;5027979;28;20036;-55
2021/05/06 15:05:54;;;;;;;18.70;13.35;;;;;;;;;;5026415;28;20029;-57
2021/05/06 15:08:21;;;;;;;17.70;12.95;;;;;;;;;;5027900;28;20030;-52
2021/05/06 15:10:47;;;;;;;18.40;12.60;;;;;;;;;;5027750;28;20017;-55
2021/05/06 15:13:13;;;;;;;16.98;12.40;;;;;;;;;;5027367;28;20112;-58
2021/05/06 15:15:39;;;;;;;16.60;11.55;;;;;;;;;;5029333;28;20045;-50
2021/05/06 15:18:05;;;;;;;17.75;11.07;;;;;;;;;;5029343;28;20103;-55
2021/05/06 15:20:32;;;;;;;17.92;12.05;;;;;;;;;;5029388;28;20021;-55
2021/05/06 15:22:58;;;;;;;17.33;11.32;;;;;;;;;;5031094;28;20021;-55
2021/05/06 15:25:25;;;;;;;17.48;11.95;;;;;;;;;;5029935;28;20080;-54
2021/05/06 15:27:51;;;;;;;16.92;11.50;;;;;;;;;;5030506;28;20030;-53
2021/05/06 15:30:18;;;;;;;17.30;11.23;;;;;;;;;;5029496;28;20040;-58
2021/05/06 15:32:45;;;;;;;18.63;11.25;;;;;;;;;;5031208;28;20025;-54
2021/05/06 15:35:11;;;;;;;17.70;12.07;;;;;;;;;;5031619;28;20033;-50
2021/05/06 15:37:37;;;;;;;16.73;11.15;;;;;;;;;;5031714;28;20030;-55
2021/05/06 15:40:04;;;;;;;16.35;11.02;;;;;;;;;;5030859;28;20017;-51
2021/05/06 15:42:30;;;;;;;18.27;11.32;;;;;;;;;;5030815;28;20029;-55
2021/05/06 15:44:57;;;;;;;17.52;11.80;;;;;;;;;;5031340;28;20135;-56
2021/05/06 15:47:23;;;;;;;17.05;11.13;;;;;;;;;;4679762;28;10000224;-54
2021/05/06 15:49:49;;;;;;;18.38;11.50;;;;;;;;;;5025807;28;20489;-53
2021/05/06 15:52:15;;;;;;;17.10;11.45;;;;;;;;;;5028302;28;20038;-53
2021/05/06 15:54:41;;;;;;;17.23;11.45;;;;;;;;;;5030744;28;20514;-53
2021/05/06 15:57:08;;;;;;;17.45;11.35;;;;;;;;;;5019969;28;20053;-52
2021/05/06 15:59:36;;;;;;;20.55;13.38;;;;;;;;;;5021473;28;20029;-55
2021/05/06 16:02:03;;;;;;;18.15;11.13;;;;;;;;;;5022486;28;20519;-53
2021/05/06 16:04:32;;;;;;;16.80;11.88;;;;;;;;;;5021800;28;20030;-54
2021/05/06 16:06:58;;;;;;;18.80;12.25;;;;;;;;;;5020970;28;20036;-56
2021/05/06 16:09:24;;;;;;;16.00;10.63;;;;;;;;;;5021222;28;20040;-54
2021/05/06 16:11:53;;;;;;;17.40;11.13;;;;;;;;;;5028897;28;20030;-54
2021/05/06 16:14:19;;;;;;;17.08;11.60;;;;;;;;;;5031073;28;20025;-55
2021/05/06 16:16:45;;;;;;;18.00;11.88;;;;;;;;;;5031102;28;20389;-57
2021/05/06 16:19:11;;;;;;;17.73;11.85;;;;;;;;;;5030374;28;20030;-57
2021/05/06 16:21:37;;;;;;;17.50;11.95;;;;;;;;;;5029162;28;20025;-55
2021/05/06 16:24:04;;;;;;;16.98;11.00;;;;;;;;;;5030772;28;20051;-56
2021/05/06 16:26:30;;;;;;;18.10;11.65;;;;;;;;;;5026994;28;20587;-53
2021/05/06 16:28:56;;;;;;;17.98;11.50;;;;;;;;;;5029057;28;20030;-57
2021/05/06 16:31:22;;;;;;;17.25;11.23;;;;;;;;;;5028681;28;20552;-54
2021/05/06 16:33:54;;;;;;;17.05;11.32;;;;;;;;;;5019963;28;20076;-54
2021/05/06 16:36:33;;;;;;;16.75;11.48;;;;;;;;;;5016429;28;20113;-53
2021/05/06 16:39:09;;;;;;;16.90;11.23;;;;;;;;;;5029757;28;20021;-56
2021/05/06 16:46:52;;;;;;;17.15;11.52;;;;;;;;;;5023310;28;20044;-52
2021/05/06 16:49:18;;;;;;;19.77;13.40;;;;;;;;;;5020646;28;20033;-55
2021/05/06 16:51:44;;;;;;;18.70;13.82;;;;;;;;;;5022423;28;20025;-54
2021/05/06 16:54:10;;;;;;;20.13;13.30;;;;;;;;;;5031055;28;20037;-54
2021/05/06 16:56:36;;;;;;;17.92;12.45;;;;;;;;;;5022414;28;20501;-55
2021/05/06 16:59:02;;;;;;;17.27;12.35;;;;;;;;;;5029042;28;20160;-56
2021/05/06 17:01:28;;;;;;;19.67;12.70;;;;;;;;;;5030232;28;20033;-57
2021/05/06 17:03:54;;;;;;;18.35;13.25;;;;;;;;;;5029361;28;20033;-57
2021/05/06 17:06:20;;;;;;;20.08;13.90;;;;;;;;;;5027104;28;20448;-57
2021/05/06 17:08:46;;;;;;;18.30;12.73;;;;;;;;;;5026559;28;20036;-51
2021/05/06 17:11:12;;;;;;;18.20;13.20;;;;;;;;;;5029464;28;20398;-52
2021/05/06 17:13:38;;;;;;;18.95;13.48;;;;;;;;;;5028779;28;20029;-53
2021/05/06 17:16:04;;;;;;;18.65;13.23;;;;;;;;;;5029927;28;20084;-54
2021/05/06 17:18:30;;;;;;;19.42;13.85;;;;;;;;;;5029867;28;20049;-57
2021/05/06 17:20:56;;;;;;;18.85;12.63;;;;;;;;;;5029170;28;20109;-56